Time;durP1;ratioP1;P1;durP2;ratioP2;P2;SDS_P1;SDS_P2;PMS_P1;PMS_P2;Temp;Humidity;BMP_temperature;BMP_pressure;BME280_temperature;BME280_humidity;BME280_pressure;Samples;Min_cycle;Max_cycle;Signal;HPM_P1;HPM_P2
2021/12/13 00:00:42;;;;;;;6.82;1.70;;;24.10;99.90;;;;;;5082660;28;20603;-76
2021/12/13 00:03:19;;;;;;;8.02;1.50;;;24.00;99.90;;;;;;5085713;28;20188;-76
2021/12/13 00:05:51;;;;;;;5.72;1.40;;;24.10;99.90;;;;;;5092916;28;20542;-75
2021/12/13 00:08:31;;;;;;;5.47;1.50;;;24.30;99.90;;;;;;5086323;28;20645;-75
2021/12/13 00:11:09;;;;;;;8.23;1.70;;;24.30;99.90;;;;;;5085874;28;20230;-76
2021/12/13 00:13:49;;;;;;;4.93;1.30;;;24.00;99.90;;;;;;5092420;28;20184;-75
2021/12/13 00:16:27;;;;;;;4.75;1.55;;;24.10;99.90;;;;;;5082252;28;20188;-77
2021/12/13 00:19:06;;;;;;;7.72;1.60;;;24.20;99.90;;;;;;5089751;28;20267;-76
2021/12/13 00:21:41;;;;;;;5.72;1.60;;;24.30;99.90;;;;;;5081627;28;20189;-75
2021/12/13 00:24:14;;;;;;;6.68;1.88;;;24.50;99.90;;;;;;5073734;28;20221;-75
2021/12/13 00:26:48;;;;;;;11.75;2.28;;;24.50;99.90;;;;;;5082808;28;20192;-74
2021/12/13 00:29:21;;;;;;;6.65;1.80;;;24.40;99.90;;;;;;5079620;28;20192;-75
2021/12/13 00:32:04;;;;;;;6.75;1.80;;;24.40;99.90;;;;;;5084652;28;20187;-75
2021/12/13 00:34:40;;;;;;;7.55;1.80;;;24.30;99.90;;;;;;5084803;28;20228;-75
2021/12/13 00:37:14;;;;;;;9.90;2.25;;;24.20;99.90;;;;;;5081707;28;20193;-75
2021/12/13 00:39:56;;;;;;;8.65;1.80;;;23.80;99.90;;;;;;5080735;28;20185;-75
2021/12/13 00:42:29;;;;;;;10.70;2.15;;;23.90;99.90;;;;;;5086842;28;20649;-75
2021/12/13 00:45:05;;;;;;;8.13;1.45;;;23.80;99.90;;;;;;5092376;28;20192;-76
2021/12/13 00:47:40;;;;;;;10.13;2.03;;;23.80;99.90;;;;;;5093870;28;20249;-75
2021/12/13 00:50:14;;;;;;;8.88;1.67;;;23.80;99.90;;;;;;5093732;28;20188;-75
2021/12/13 00:52:49;;;;;;;8.35;1.83;;;24.00;99.90;;;;;;5093490;28;20604;-75
2021/12/13 00:55:22;;;;;;;8.88;1.75;;;24.00;99.90;;;;;;5072902;28;20185;-75
2021/12/13 00:58:06;;;;;;;9.20;1.60;;;24.10;99.90;;;;;;5089483;28;20220;-75
2021/12/13 01:00:41;;;;;;;8.15;1.50;;;23.90;99.90;;;;;;5087616;28;20199;-75
2021/12/13 01:03:18;;;;;;;8.75;1.60;;;24.00;99.90;;;;;;5084002;28;20260;-75
2021/12/13 01:06:19;;;;;;;8.40;1.60;;;24.00;99.90;;;;;;5084487;28;20643;-75
2021/12/13 01:09:44;;;;;;;9.10;1.80;;;24.00;99.90;;;;;;5081398;28;20187;-75
2021/12/13 01:12:18;;;;;;;6.78;1.60;;;23.90;99.90;;;;;;5075026;28;20254;-76
2021/12/13 01:14:57;;;;;;;6.88;1.75;;;23.80;99.90;;;;;;5092570;28;20640;-74
2021/12/13 01:17:43;;;;;;;7.68;1.98;;;23.80;99.90;;;;;;5083771;28;20260;-75
2021/12/13 01:20:26;;;;;;;7.78;1.63;;;23.90;99.90;;;;;;5092499;28;20243;-75
2021/12/13 01:23:00;;;;;;;8.82;2.00;;;23.80;99.90;;;;;;5084298;28;20246;-75
2021/12/13 01:25:43;;;;;;;6.47;1.70;;;23.60;99.90;;;;;;5084411;28;20266;-75
2021/12/13 01:28:22;;;;;;;7.50;1.80;;;23.60;99.90;;;;;;5084522;28;20201;-75
2021/12/13 01:30:56;;;;;;;8.30;1.80;;;23.70;99.90;;;;;;5092347;28;20188;-75
2021/12/13 01:33:30;;;;;;;6.70;1.65;;;23.40;99.90;;;;;;5091710;28;20659;-75
2021/12/13 01:36:06;;;;;;;9.43;2.00;;;23.40;99.90;;;;;;5086047;28;20201;-75
2021/12/13 01:38:40;;;;;;;6.68;1.60;;;23.40;99.90;;;;;;5080820;28;20238;-75
2021/12/13 01:41:17;;;;;;;8.57;1.67;;;23.40;99.90;;;;;;5073346;28;20203;-74
2021/12/13 01:43:50;;;;;;;7.50;1.67;;;23.30;99.90;;;;;;5084028;28;20234;-75
2021/12/13 01:46:23;;;;;;;8.48;1.50;;;23.30;99.90;;;;;;5092310;28;20274;-75
2021/12/13 01:48:55;;;;;;;7.45;1.75;;;23.40;99.90;;;;;;5084075;28;20192;-75
2021/12/13 01:51:33;;;;;;;7.93;2.00;;;23.40;99.90;;;;;;5092185;28;20241;-75
2021/12/13 01:54:08;;;;;;;7.65;1.60;;;23.50;99.90;;;;;;5080841;28;20199;-74
2021/12/13 01:56:46;;;;;;;7.38;1.52;;;23.30;99.90;;;;;;5089026;28;20644;-74
2021/12/13 02:02:21;;;;;;;5.70;1.52;;;23.30;99.90;;;;;;5076368;28;20188;-74
2021/12/13 02:05:07;;;;;;;8.75;1.83;;;23.30;99.90;;;;;;5085715;28;20189;-75
2021/12/13 02:07:48;;;;;;;6.80;1.70;;;23.30;99.90;;;;;;5084010;28;20235;-75
2021/12/13 02:10:24;;;;;;;7.80;1.70;;;23.40;99.90;;;;;;5088122;28;20183;-75
2021/12/13 02:13:01;;;;;;;8.75;1.73;;;23.50;99.90;;;;;;5089634;28;20188;-76
2021/12/13 02:18:26;;;;;;;8.55;1.63;;;23.40;99.90;;;;;;5082635;28;20281;-76
2021/12/13 02:21:05;;;;;;;5.43;1.42;;;23.20;99.90;;;;;;5090500;28;20195;-75
2021/12/13 02:23:43;;;;;;;8.63;1.77;;;23.00;99.90;;;;;;5081521;28;20192;-74
2021/12/13 02:26:14;;;;;;;6.30;1.35;;;23.20;99.90;;;;;;5082705;28;20196;-75
2021/12/13 02:28:47;;;;;;;6.53;1.42;;;23.20;99.90;;;;;;5085855;28;20234;-75
2021/12/13 02:31:21;;;;;;;8.65;1.83;;;23.30;99.90;;;;;;5091017;28;20184;-75
2021/12/13 02:33:56;;;;;;;6.30;1.42;;;23.20;99.90;;;;;;5090250;28;20223;-76
2021/12/13 02:36:28;;;;;;;8.10;1.60;;;23.20;99.90;;;;;;5089923;28;20226;-75
2021/12/13 02:39:06;;;;;;;6.50;1.40;;;23.20;99.90;;;;;;5082733;28;20242;-75
2021/12/13 02:41:39;;;;;;;7.18;1.45;;;23.20;99.90;;;;;;5088543;28;20210;-75
2021/12/13 02:44:12;;;;;;;5.78;1.90;;;23.10;99.90;;;;;;5082051;28;20235;-74
2021/12/13 02:46:43;;;;;;;7.40;1.67;;;23.10;99.90;;;;;;5088137;28;20192;-75
2021/12/13 02:49:16;;;;;;;5.63;1.60;;;23.00;99.90;;;;;;5091872;28;20195;-75
2021/12/13 02:51:52;;;;;;;8.77;2.00;;;23.10;99.90;;;;;;5087748;28;20213;-75
2021/12/13 02:54:28;;;;;;;9.85;1.90;;;23.00;99.90;;;;;;5078649;28;20196;-75
2021/12/13 02:57:01;;;;;;;10.60;1.83;;;23.10;99.90;;;;;;5085594;28;20192;-75
2021/12/13 02:59:34;;;;;;;6.15;1.80;;;23.20;99.90;;;;;;5092670;28;20211;-75
2021/12/13 03:02:11;;;;;;;7.35;1.60;;;23.30;99.90;;;;;;5091791;28;20197;-75
2021/12/13 03:04:43;;;;;;;9.95;1.60;;;23.20;99.90;;;;;;5083163;28;20199;-75
2021/12/13 03:07:16;;;;;;;8.85;1.70;;;23.20;99.90;;;;;;5095696;28;20650;-76
2021/12/13 03:09:51;;;;;;;12.40;1.60;;;23.20;99.90;;;;;;5095502;28;20218;-75
2021/12/13 03:12:25;;;;;;;8.85;1.50;;;23.10;99.90;;;;;;5087480;28;20200;-75
2021/12/13 03:14:58;;;;;;;9.30;1.90;;;23.10;99.90;;;;;;5074459;28;20211;-75
2021/12/13 03:17:36;;;;;;;11.45;1.70;;;23.00;99.90;;;;;;5077540;28;20228;-75
2021/12/13 03:20:23;;;;;;;7.45;1.70;;;23.00;99.90;;;;;;5074538;28;20215;-75
2021/12/13 03:23:20;;;;;;;8.85;1.90;;;23.00;99.90;;;;;;5073393;28;20207;-76
2021/12/13 03:26:19;;;;;;;9.85;1.67;;;23.30;99.90;;;;;;5075541;28;20558;-75
2021/12/13 03:29:05;;;;;;;6.38;1.80;;;23.20;99.90;;;;;;5078703;28;20199;-75
2021/12/13 03:31:38;;;;;;;8.43;2.10;;;23.10;99.90;;;;;;5081776;28;20208;-75
2021/12/13 03:34:13;;;;;;;9.30;1.75;;;23.10;99.90;;;;;;5078343;28;20236;-75
2021/12/13 03:37:01;;;;;;;8.07;2.00;;;23.10;99.90;;;;;;5076533;28;20567;-75
2021/12/13 03:39:33;;;;;;;7.32;1.67;;;23.10;99.90;;;;;;5079537;28;20219;-74
2021/12/13 03:42:09;;;;;;;7.45;2.03;;;23.10;99.90;;;;;;5078102;28;20561;-75
2021/12/13 03:44:48;;;;;;;9.20;1.80;;;23.00;99.90;;;;;;5085212;28;20676;-74
2021/12/13 03:47:22;;;;;;;8.25;1.67;;;23.00;99.90;;;;;;5092698;28;20207;-76
2021/12/13 03:49:56;;;;;;;7.35;1.80;;;22.90;99.90;;;;;;5088529;28;20200;-76
2021/12/13 03:52:30;;;;;;;8.13;1.70;;;23.00;99.90;;;;;;5088181;28;20220;-75
2021/12/13 03:55:05;;;;;;;7.32;1.40;;;22.90;99.90;;;;;;5086734;28;20207;-76
2021/12/13 03:57:39;;;;;;;8.65;1.58;;;23.00;99.90;;;;;;5082539;28;20342;-76
2021/12/13 04:00:16;;;;;;;8.82;1.80;;;22.90;99.90;;;;;;5083952;28;20558;-74
2021/12/13 04:02:47;;;;;;;6.32;1.75;;;22.80;99.90;;;;;;5080131;28;20663;-74
2021/12/13 04:05:21;;;;;;;8.15;2.00;;;22.90;99.90;;;;;;5084130;28;20211;-74
2021/12/13 04:07:53;;;;;;;8.93;1.70;;;22.90;99.90;;;;;;5088536;28;20196;-74
2021/12/13 04:10:26;;;;;;;11.05;1.85;;;22.90;99.90;;;;;;5082990;28;20204;-75
2021/12/13 04:13:00;;;;;;;7.45;1.70;;;22.80;99.90;;;;;;5082597;28;20257;-76
2021/12/13 04:15:50;;;;;;;8.70;1.88;;;22.70;99.90;;;;;;5080744;28;20200;-75
2021/12/13 04:18:41;;;;;;;8.57;1.85;;;22.70;99.90;;;;;;5083483;28;20188;-76
2021/12/13 04:21:13;;;;;;;8.10;1.75;;;22.70;99.90;;;;;;5079897;28;20196;-76
2021/12/13 04:23:51;;;;;;;8.35;1.73;;;22.60;99.90;;;;;;5081428;28;20652;-75
2021/12/13 04:26:22;;;;;;;10.55;1.73;;;22.60;99.90;;;;;;5086750;28;20675;-75
2021/12/13 04:28:55;;;;;;;10.25;1.90;;;22.70;99.90;;;;;;5075984;28;20557;-74
2021/12/13 04:31:30;;;;;;;9.27;1.70;;;22.80;99.90;;;;;;5088263;28;21624;-77
2021/12/13 04:34:08;;;;;;;10.60;1.60;;;22.70;99.90;;;;;;5084241;28;20228;-74
2021/12/13 04:36:41;;;;;;;10.30;1.92;;;22.70;99.90;;;;;;5089453;28;20199;-75
2021/12/13 04:39:18;;;;;;;7.50;1.98;;;22.50;99.90;;;;;;5091759;28;20263;-75
2021/12/13 04:41:53;;;;;;;7.22;1.60;;;22.50;99.90;;;;;;5091611;28;20605;-74
2021/12/13 04:44:36;;;;;;;9.88;1.60;;;22.50;99.90;;;;;;5084651;28;20200;-75
2021/12/13 04:47:12;;;;;;;9.95;1.90;;;22.60;99.90;;;;;;5084731;28;20207;-76
2021/12/13 04:49:46;;;;;;;9.35;1.75;;;22.50;99.90;;;;;;5084405;28;20198;-75
2021/12/13 04:52:19;;;;;;;10.25;2.00;;;22.50;99.90;;;;;;5082606;28;20300;-76
2021/12/13 04:54:54;;;;;;;11.43;2.00;;;22.30;99.90;;;;;;5074805;28;20193;-75
2021/12/13 04:57:25;;;;;;;7.90;2.00;;;22.30;99.90;;;;;;5090587;28;20249;-75
2021/12/13 04:59:59;;;;;;;10.07;1.92;;;22.50;99.90;;;;;;5083392;28;20224;-74
2021/12/13 05:02:32;;;;;;;7.35;1.85;;;22.60;99.90;;;;;;5081841;28;20668;-75
2021/12/13 05:05:06;;;;;;;8.18;1.83;;;22.70;99.90;;;;;;5083522;28;20268;-75
2021/12/13 05:07:38;;;;;;;7.97;1.60;;;22.70;99.90;;;;;;5089526;28;20271;-77
2021/12/13 05:10:09;;;;;;;9.75;1.80;;;22.70;99.90;;;;;;5086454;28;20207;-75
2021/12/13 05:12:40;;;;;;;6.82;1.83;;;22.40;99.90;;;;;;5083177;28;20615;-75
2021/12/13 05:15:13;;;;;;;6.72;1.77;;;22.30;99.90;;;;;;5092196;28;20200;-75
2021/12/13 05:17:48;;;;;;;6.78;1.45;;;22.30;99.90;;;;;;5091187;28;20200;-76
2021/12/13 05:20:22;;;;;;;8.73;1.90;;;22.40;99.90;;;;;;5091988;28;20222;-75
2021/12/13 05:22:55;;;;;;;7.93;1.80;;;22.40;99.90;;;;;;5082683;28;20193;-75
2021/12/13 05:25:33;;;;;;;6.22;1.60;;;22.30;99.90;;;;;;5091878;28;20664;-76
2021/12/13 05:28:09;;;;;;;7.35;1.50;;;22.30;99.90;;;;;;5090340;28;20275;-74
2021/12/13 05:30:54;;;;;;;9.57;2.15;;;22.30;99.90;;;;;;5089135;28;20196;-74
2021/12/13 05:33:28;;;;;;;13.20;1.60;;;22.40;99.90;;;;;;5078394;28;20196;-74
2021/12/13 05:36:01;;;;;;;8.75;1.67;;;22.40;99.90;;;;;;5090890;28;20203;-75
2021/12/13 05:38:35;;;;;;;6.68;1.70;;;22.40;99.90;;;;;;5091684;28;20196;-75
2021/12/13 05:41:09;;;;;;;8.90;1.50;;;22.40;99.90;;;;;;5092919;28;20207;-75
2021/12/13 05:43:43;;;;;;;8.63;1.73;;;22.50;99.90;;;;;;5098071;28;20187;-74
2021/12/13 05:46:18;;;;;;;10.35;1.63;;;22.50;99.90;;;;;;5097838;28;20207;-74
2021/12/13 05:48:53;;;;;;;5.82;1.50;;;22.60;99.90;;;;;;5098663;28;20580;-74
2021/12/13 05:51:31;;;;;;;9.88;1.55;;;22.50;99.90;;;;;;5097955;28;20226;-76
2021/12/13 05:54:08;;;;;;;8.00;1.65;;;22.40;99.90;;;;;;5094710;28;20195;-75
2021/12/13 05:56:43;;;;;;;6.60;1.50;;;22.20;99.90;;;;;;5097880;28;20195;-77
2021/12/13 05:59:23;;;;;;;7.85;1.42;;;22.20;99.90;;;;;;5098039;28;20260;-73
2021/12/13 06:02:06;;;;;;;10.02;1.80;;;22.20;99.90;;;;;;5093243;28;20200;-74
2021/12/13 06:04:42;;;;;;;9.15;1.60;;;22.20;99.90;;;;;;5095685;28;20199;-74
2021/12/13 06:07:23;;;;;;;5.43;1.63;;;22.10;99.90;;;;;;5093521;28;20605;-75
2021/12/13 06:10:02;;;;;;;8.32;1.70;;;21.90;99.90;;;;;;5096440;28;20210;-75
2021/12/13 06:12:40;;;;;;;6.40;1.50;;;21.90;99.90;;;;;;5089845;28;20189;-75
2021/12/13 06:15:29;;;;;;;7.65;1.52;;;22.00;99.90;;;;;;5088747;28;20196;-75
2021/12/13 06:18:19;;;;;;;8.43;1.42;;;22.10;99.90;;;;;;5085305;28;20200;-75
2021/12/13 06:21:00;;;;;;;8.27;1.67;;;22.10;99.90;;;;;;5091441;28;20208;-75
2021/12/13 06:23:32;;;;;;;10.43;1.70;;;22.00;99.90;;;;;;5091039;28;20249;-75
2021/12/13 06:26:06;;;;;;;9.07;1.58;;;21.90;99.90;;;;;;5092927;28;20189;-75
2021/12/13 06:28:39;;;;;;;7.35;1.70;;;21.90;99.90;;;;;;5089832;28;20246;-74
2021/12/13 06:31:14;;;;;;;8.98;1.77;;;22.00;99.90;;;;;;5096783;28;20565;-75
2021/12/13 06:33:54;;;;;;;8.70;1.52;;;22.00;99.90;;;;;;5093115;28;20683;-75
2021/12/13 06:36:35;;;;;;;8.32;1.45;;;22.00;99.90;;;;;;5084933;28;20192;-76
2021/12/13 06:39:10;;;;;;;7.55;1.45;;;22.00;99.90;;;;;;5097099;28;20199;-75
2021/12/13 06:41:44;;;;;;;7.85;1.55;;;21.90;99.90;;;;;;5090166;28;20563;-74
2021/12/13 06:44:22;;;;;;;5.63;1.40;;;21.80;99.90;;;;;;5092343;28;20199;-75
2021/12/13 06:47:00;;;;;;;8.10;1.67;;;21.60;99.90;;;;;;5094935;28;20194;-76
2021/12/13 06:49:40;;;;;;;7.63;1.35;;;21.70;99.90;;;;;;5097128;28;20287;-75
2021/12/13 06:52:23;;;;;;;11.27;1.98;;;21.80;99.90;;;;;;5096238;28;20223;-74
2021/12/13 06:55:03;;;;;;;7.65;1.77;;;21.90;99.90;;;;;;5080922;28;20205;-75
2021/12/13 06:57:39;;;;;;;9.48;1.48;;;21.90;99.90;;;;;;5090850;28;20242;-75
2021/12/13 07:00:13;;;;;;;10.63;1.67;;;21.90;99.90;;;;;;5083509;28;20687;-75
2021/12/13 07:02:46;;;;;;;9.68;1.67;;;21.90;99.90;;;;;;5078102;28;20208;-74
2021/12/13 07:05:22;;;;;;;8.48;1.70;;;21.80;99.90;;;;;;5089327;28;20261;-74
2021/12/13 07:07:59;;;;;;;8.90;1.50;;;21.70;99.90;;;;;;5092971;28;20203;-74
2021/12/13 07:10:33;;;;;;;6.97;1.55;;;21.70;99.90;;;;;;5089212;28;20188;-74
2021/12/13 07:13:09;;;;;;;6.10;1.55;;;21.70;99.90;;;;;;5084395;28;20577;-75
2021/12/13 07:15:44;;;;;;;9.73;1.48;;;21.70;99.90;;;;;;5086871;28;20219;-75
2021/12/13 07:18:18;;;;;;;8.20;1.55;;;21.70;99.90;;;;;;5083774;28;20678;-74
2021/12/13 07:20:52;;;;;;;4.68;1.20;;;21.70;99.90;;;;;;5083265;28;20207;-75
2021/12/13 07:23:25;;;;;;;9.40;1.70;;;21.70;99.90;;;;;;5080838;28;20200;-74
2021/12/13 07:25:57;;;;;;;8.35;1.42;;;21.50;99.90;;;;;;5086445;28;20665;-74
2021/12/13 07:28:36;;;;;;;11.13;1.90;;;21.60;99.90;;;;;;5091914;28;20196;-74
2021/12/13 07:31:12;;;;;;;4.43;1.30;;;21.60;99.90;;;;;;5091799;28;20721;-74
2021/12/13 07:33:46;;;;;;;8.38;1.58;;;21.60;99.90;;;;;;5085111;28;20289;-74
2021/12/13 07:36:24;;;;;;;8.80;1.77;;;21.50;99.90;;;;;;5087231;28;20660;-74
2021/12/13 07:39:00;;;;;;;7.32;1.63;;;21.40;99.90;;;;;;5093378;28;20675;-75
2021/12/13 07:41:40;;;;;;;9.20;1.60;;;21.30;99.90;;;;;;5089595;28;20681;-74
2021/12/13 07:44:14;;;;;;;9.55;1.70;;;21.30;99.90;;;;;;5082109;28;20287;-74
2021/12/13 07:46:45;;;;;;;8.13;1.52;;;21.40;99.90;;;;;;5081645;28;20200;-75
2021/12/13 07:49:15;;;;;;;7.45;1.35;;;21.40;99.90;;;;;;5091287;28;20196;-74
2021/12/13 07:51:55;;;;;;;11.45;1.70;;;21.40;99.90;;;;;;5086030;28;20228;-74
2021/12/13 07:54:29;;;;;;;10.40;1.75;;;21.50;99.90;;;;;;5083792;28;20189;-75
2021/12/13 07:57:02;;;;;;;7.22;1.40;;;21.60;99.90;;;;;;5084983;28;20201;-74
2021/12/13 07:59:36;;;;;;;8.85;1.60;;;21.70;99.90;;;;;;5090374;28;20192;-75
2021/12/13 08:02:12;;;;;;;11.48;1.60;;;21.70;99.90;;;;;;5086806;28;20196;-75
2021/12/13 08:04:49;;;;;;;8.95;1.60;;;21.70;99.90;;;;;;5087849;28;20652;-76
2021/12/13 08:07:21;;;;;;;8.80;1.98;;;21.40;99.90;;;;;;5088521;28;20199;-75
2021/12/13 08:10:00;;;;;;;7.50;1.52;;;21.30;99.90;;;;;;5083825;28;20236;-73
2021/12/13 08:12:33;;;;;;;10.80;1.80;;;21.40;99.90;;;;;;5082565;28;20192;-74
2021/12/13 08:15:18;;;;;;;9.93;1.95;;;21.30;99.90;;;;;;5085284;28;20241;-73
2021/12/13 08:17:50;;;;;;;9.27;1.88;;;21.20;99.90;;;;;;5085500;28;20616;-73
2021/12/13 08:20:25;;;;;;;7.68;1.80;;;21.10;99.90;;;;;;5091652;28;20311;-74
2021/12/13 08:22:57;;;;;;;6.57;1.50;;;20.90;99.90;;;;;;5084860;28;20269;-74
2021/12/13 08:25:33;;;;;;;10.32;1.80;;;20.70;99.90;;;;;;5082912;28;20196;-74
2021/12/13 08:28:09;;;;;;;11.10;2.10;;;20.50;99.90;;;;;;5090257;28;20191;-74
2021/12/13 08:30:49;;;;;;;9.20;1.73;;;20.30;99.90;;;;;;5086013;28;20548;-73
2021/12/13 08:33:21;;;;;;;10.27;1.90;;;20.30;99.90;;;;;;5076671;28;20288;-74
2021/12/13 08:35:58;;;;;;;10.20;1.50;;;20.20;99.90;;;;;;5079208;28;20556;-74
2021/12/13 08:38:43;;;;;;;8.52;1.70;;;20.20;99.90;;;;;;5083896;28;20717;-74
2021/12/13 08:41:42;;;;;;;6.95;1.70;;;20.20;99.90;;;;;;5081277;28;20235;-75
2021/12/13 08:44:23;;;;;;;11.65;2.00;;;20.10;99.90;;;;;;5071133;28;20200;-75
2021/12/13 08:47:03;;;;;;;10.35;1.73;;;20.10;99.90;;;;;;5083839;28;20210;-76
2021/12/13 08:49:40;;;;;;;8.80;1.92;;;20.10;99.90;;;;;;5083281;28;20199;-74
2021/12/13 08:52:23;;;;;;;12.30;1.63;;;20.00;99.90;;;;;;5084987;28;21032;-74
2021/12/13 08:54:59;;;;;;;8.75;1.70;;;19.90;99.90;;;;;;5083383;28;20282;-74
2021/12/13 08:57:45;;;;;;;10.63;2.00;;;19.80;99.90;;;;;;5087192;28;20200;-75
2021/12/13 09:00:43;;;;;;;7.60;1.80;;;19.80;99.90;;;;;;5081052;28;20550;-74
2021/12/13 09:03:27;;;;;;;9.20;1.67;;;19.80;99.90;;;;;;5082523;28;20192;-74
2021/12/13 09:06:08;;;;;;;10.07;1.98;;;19.70;99.90;;;;;;5082772;28;20678;-74
2021/12/13 09:08:44;;;;;;;8.63;1.85;;;19.70;99.90;;;;;;5082076;28;20192;-74
2021/12/13 09:11:32;;;;;;;8.60;1.83;;;19.60;99.90;;;;;;5083009;28;20196;-74
2021/12/13 09:14:12;;;;;;;9.18;1.70;;;19.60;99.90;;;;;;5086809;28;20224;-75
2021/12/13 09:16:59;;;;;;;9.93;1.70;;;19.60;99.90;;;;;;5083438;28;20208;-75
2021/12/13 09:19:33;;;;;;;11.57;1.70;;;19.50;99.90;;;;;;5082576;28;20192;-74
2021/12/13 09:22:09;;;;;;;6.75;1.52;;;19.50;99.90;;;;;;5078511;28;20224;-74
2021/12/13 09:24:44;;;;;;;9.07;1.88;;;19.50;99.90;;;;;;5078794;28;20208;-75
2021/12/13 09:27:30;;;;;;;8.68;1.63;;;19.40;99.90;;;;;;5087875;28;20196;-73
2021/12/13 09:30:26;;;;;;;9.00;1.80;;;19.40;99.90;;;;;;5083544;28;20224;-74
2021/12/13 09:33:00;;;;;;;10.15;1.52;;;19.40;99.90;;;;;;5085494;28;20215;-75
2021/12/13 09:35:40;;;;;;;9.35;1.80;;;19.40;99.90;;;;;;5085939;28;20224;-74
2021/12/13 09:38:50;;;;;;;10.27;1.65;;;19.30;99.90;;;;;;5082645;28;20192;-73
2021/12/13 09:41:40;;;;;;;15.00;1.67;;;19.30;99.90;;;;;;5081785;28;20699;-75
2021/12/13 09:44:23;;;;;;;9.27;1.75;;;19.30;99.90;;;;;;5084467;28;20683;-75
2021/12/13 09:47:07;;;;;;;8.93;1.88;;;19.30;99.90;;;;;;5081482;28;20235;-74
2021/12/13 09:49:45;;;;;;;8.55;1.67;;;19.20;99.90;;;;;;5082297;28;20287;-74
2021/12/13 09:52:17;;;;;;;9.23;1.85;;;19.30;99.90;;;;;;5083248;28;20235;-74
2021/12/13 09:54:53;;;;;;;15.55;1.88;;;19.20;99.90;;;;;;5082756;28;20196;-75
2021/12/13 09:57:29;;;;;;;9.07;1.70;;;19.20;99.90;;;;;;5079882;28;20677;-74
2021/12/13 10:00:00;;;;;;;9.75;1.50;;;19.20;99.90;;;;;;5084241;28;20536;-75
2021/12/13 10:02:36;;;;;;;9.50;1.73;;;19.20;99.90;;;;;;5084042;28;20188;-74
2021/12/13 10:05:09;;;;;;;7.25;1.65;;;19.20;99.90;;;;;;5083412;28;20623;-75
2021/12/13 10:07:44;;;;;;;10.70;1.90;;;19.10;99.90;;;;;;5082453;28;20241;-74
2021/12/13 10:10:18;;;;;;;8.13;1.52;;;19.20;99.90;;;;;;5083272;28;20198;-75
2021/12/13 10:12:53;;;;;;;9.40;1.67;;;19.10;99.90;;;;;;5078564;28;20201;-74
2021/12/13 10:15:26;;;;;;;6.55;1.45;;;19.10;99.90;;;;;;5072107;28;20189;-75
2021/12/13 10:18:01;;;;;;;6.82;1.30;;;19.10;99.90;;;;;;5080520;28;20189;-74
2021/12/13 10:20:34;;;;;;;7.15;1.27;;;19.10;99.90;;;;;;5075855;28;20207;-73
2021/12/13 10:23:09;;;;;;;10.00;2.15;;;19.10;99.90;;;;;;5083708;28;20188;-75
2021/12/13 10:25:45;;;;;;;7.80;1.88;;;19.10;99.90;;;;;;5081516;28;20228;-74
2021/12/13 10:28:19;;;;;;;5.07;1.40;;;19.10;99.90;;;;;;5082566;28;20644;-74
2021/12/13 10:30:52;;;;;;;6.15;1.30;;;19.10;99.90;;;;;;5092471;28;20533;-74
2021/12/13 10:33:28;;;;;;;8.23;1.92;;;19.10;99.90;;;;;;5086926;28;20706;-75
2021/12/13 10:36:01;;;;;;;5.95;1.80;;;19.10;99.90;;;;;;5083529;28;20741;-75
2021/12/13 10:38:34;;;;;;;6.90;1.33;;;19.10;99.90;;;;;;5083124;28;20232;-75
2021/12/13 10:41:08;;;;;;;6.45;1.40;;;19.10;99.90;;;;;;5095060;28;20315;-75
2021/12/13 10:43:50;;;;;;;6.03;1.48;;;19.10;99.90;;;;;;5094702;28;20195;-74
2021/12/13 10:46:26;;;;;;;8.15;1.40;;;19.10;99.90;;;;;;5094332;28;20203;-75
2021/12/13 10:49:01;;;;;;;6.75;1.50;;;19.00;99.90;;;;;;5079293;28;20197;-74
2021/12/13 10:51:35;;;;;;;8.35;1.80;;;19.00;99.90;;;;;;5085510;28;20216;-74
2021/12/13 10:54:28;;;;;;;8.48;1.50;;;19.00;99.90;;;;;;5094486;28;20184;-73
2021/12/13 10:57:07;;;;;;;8.60;1.48;;;19.00;99.90;;;;;;5090100;28;20196;-74
2021/12/13 10:59:38;;;;;;;5.90;1.33;;;19.00;99.90;;;;;;5083702;28;20286;-75
2021/12/13 11:02:11;;;;;;;5.25;1.42;;;19.00;99.90;;;;;;5089576;28;20216;-74
2021/12/13 11:04:48;;;;;;;8.02;1.70;;;19.00;99.90;;;;;;5081539;28;20196;-75
2021/12/13 11:07:19;;;;;;;6.75;1.02;;;19.00;99.90;;;;;;5095085;28;20188;-74
2021/12/13 11:09:53;;;;;;;11.05;1.30;;;19.00;99.90;;;;;;5086637;28;20204;-75
2021/12/13 11:12:27;;;;;;;9.32;1.52;;;19.00;99.90;;;;;;5079360;28;20197;-74
2021/12/13 11:15:05;;;;;;;5.50;1.40;;;19.00;99.90;;;;;;5081301;28;20561;-75
2021/12/13 11:17:37;;;;;;;8.43;1.50;;;19.00;99.90;;;;;;5087634;28;20598;-74
2021/12/13 11:20:14;;;;;;;5.90;1.40;;;19.00;99.90;;;;;;5079821;28;20185;-75
2021/12/13 11:22:45;;;;;;;6.18;1.80;;;19.00;99.90;;;;;;5083098;28;20643;-75
2021/12/13 11:25:20;;;;;;;6.28;1.63;;;19.00;99.90;;;;;;5092491;28;20202;-74
2021/12/13 11:27:54;;;;;;;7.43;1.48;;;19.00;99.90;;;;;;5078130;28;20193;-74
2021/12/13 11:30:30;;;;;;;7.32;1.48;;;19.00;99.90;;;;;;5088538;28;20189;-74
2021/12/13 11:33:52;;;;;;;10.35;1.77;;;19.00;99.90;;;;;;5093970;28;20560;-74
2021/12/13 11:37:03;;;;;;;9.88;2.20;;;19.00;99.90;;;;;;5083043;28;20200;-75
2021/12/13 11:39:59;;;;;;;5.18;1.60;;;19.00;99.90;;;;;;5076068;28;20197;-74
2021/12/13 11:43:03;;;;;;;7.97;1.67;;;19.10;99.90;;;;;;5082659;28;20266;-74
2021/12/13 11:46:11;;;;;;;12.10;1.73;;;19.20;99.90;;;;;;5079062;28;20232;-74
2021/12/13 11:49:10;;;;;;;8.65;1.75;;;19.20;99.90;;;;;;5058797;28;20364;-75
2021/12/13 11:52:13;;;;;;;10.15;1.50;;;19.20;99.90;;;;;;5083976;28;20243;-74
2021/12/13 11:55:42;;;;;;;9.88;1.85;;;19.30;99.90;;;;;;5065700;28;20195;-75
2021/12/13 11:58:45;;;;;;;10.45;1.98;;;19.30;99.90;;;;;;5071629;28;20283;-74
2021/12/13 12:02:05;;;;;;;12.73;1.77;;;19.30;99.90;;;;;;5082582;28;20216;-74
2021/12/13 12:05:19;;;;;;;6.50;1.60;;;19.30;99.90;;;;;;5088439;28;20250;-74
2021/12/13 12:08:32;;;;;;;11.07;1.65;;;19.40;99.90;;;;;;5089757;28;20200;-75
2021/12/13 12:11:55;;;;;;;9.23;1.50;;;19.40;99.90;;;;;;5059195;28;20207;-75
2021/12/13 12:14:29;;;;;;;7.53;2.03;;;19.30;99.90;;;;;;5044055;28;20197;-74
2021/12/13 12:17:02;;;;;;;6.32;1.73;;;19.30;99.90;;;;;;5084691;28;20204;-75
2021/12/13 12:19:37;;;;;;;7.70;1.80;;;19.40;99.90;;;;;;5077851;28;20264;-75
2021/12/13 12:22:13;;;;;;;8.73;1.90;;;19.30;99.90;;;;;;5090510;28;20558;-74
2021/12/13 12:24:48;;;;;;;13.05;1.70;;;19.20;99.90;;;;;;5087007;28;20654;-75
2021/12/13 12:27:24;;;;;;;5.88;1.60;;;19.20;99.90;;;;;;5092391;28;20219;-74
2021/12/13 12:30:01;;;;;;;8.25;2.03;;;19.20;99.90;;;;;;5085378;28;20222;-75
2021/12/13 12:32:33;;;;;;;14.48;2.03;;;19.20;99.90;;;;;;5091832;28;20192;-75
2021/12/13 12:35:06;;;;;;;12.15;2.00;;;19.20;99.90;;;;;;5092604;28;20224;-75
2021/12/13 12:38:28;;;;;;;6.80;1.70;;;19.20;99.90;;;;;;5087652;28;20199;-74
2021/12/13 12:41:38;;;;;;;10.10;1.90;;;19.10;99.90;;;;;;5087914;28;20623;-74
2021/12/13 12:44:09;;;;;;;7.85;1.80;;;19.10;99.90;;;;;;5067868;28;20554;-75
2021/12/13 12:46:45;;;;;;;7.38;1.77;;;19.00;99.90;;;;;;5084074;28;20591;-74
2021/12/13 12:49:18;;;;;;;11.18;1.90;;;19.10;99.90;;;;;;5085298;28;20189;-75
2021/12/13 12:51:49;;;;;;;8.85;1.55;;;19.00;99.90;;;;;;5077284;28;20188;-74
2021/12/13 12:54:21;;;;;;;9.18;1.70;;;19.00;99.90;;;;;;5084598;28;20270;-75
2021/12/13 12:56:55;;;;;;;7.28;1.67;;;18.90;99.90;;;;;;5077564;28;20184;-74
2021/12/13 12:59:27;;;;;;;5.90;1.65;;;18.90;99.90;;;;;;5089847;28;20195;-74
2021/12/13 13:02:04;;;;;;;8.85;1.90;;;18.90;99.90;;;;;;5086490;28;20212;-74
2021/12/13 13:04:37;;;;;;;7.82;1.70;;;18.90;99.90;;;;;;5090143;28;20618;-75
2021/12/13 13:07:13;;;;;;;9.43;1.77;;;18.90;99.90;;;;;;5081518;28;20189;-75
2021/12/13 13:09:50;;;;;;;6.50;1.77;;;18.80;99.90;;;;;;5089067;28;20206;-75
2021/12/13 13:12:27;;;;;;;10.52;1.88;;;18.80;99.90;;;;;;5088727;28;20188;-75
2021/12/13 13:15:00;;;;;;;6.88;1.90;;;18.80;99.90;;;;;;5083460;28;20189;-74
2021/12/13 13:17:36;;;;;;;8.18;2.00;;;18.70;99.90;;;;;;5088927;28;20222;-75
2021/12/13 13:20:10;;;;;;;11.35;2.20;;;18.70;99.90;;;;;;5087954;28;20299;-75
2021/12/13 13:22:46;;;;;;;8.98;1.85;;;18.70;99.90;;;;;;5090168;28;20230;-75
2021/12/13 13:25:20;;;;;;;6.63;1.77;;;18.70;99.90;;;;;;5087164;28;20241;-75
2021/12/13 13:27:52;;;;;;;9.93;2.00;;;18.70;99.90;;;;;;5083109;28;20533;-75
2021/12/13 13:30:26;;;;;;;9.38;1.88;;;18.70;99.90;;;;;;5088158;28;20189;-74
2021/12/13 13:32:58;;;;;;;5.38;1.48;;;18.70;99.90;;;;;;5076112;28;20188;-74
2021/12/13 13:35:30;;;;;;;9.98;1.80;;;18.60;99.90;;;;;;5087877;28;20289;-75
2021/12/13 13:38:01;;;;;;;8.30;1.73;;;18.60;99.90;;;;;;5091097;28;20200;-74
2021/12/13 13:40:33;;;;;;;4.78;1.50;;;18.60;99.90;;;;;;5084272;28;20184;-75
2021/12/13 13:43:07;;;;;;;9.25;1.80;;;18.60;99.90;;;;;;5092121;28;20231;-74
2021/12/13 13:45:39;;;;;;;8.13;1.88;;;18.60;99.90;;;;;;5086306;28;20189;-75
2021/12/13 13:48:15;;;;;;;9.02;1.63;;;18.60;99.90;;;;;;5083628;28;20189;-75